Time;durP1;ratioP1;P1;durP2;ratioP2;P2;SDS_P1;SDS_P2;PMS_P1;PMS_P2;Temp;Humidity;BMP_temperature;BMP_pressure;BME280_temperature;BME280_humidity;BME280_pressure;Samples;Min_cycle;Max_cycle;Signal;HPM_P1;HPM_P2
2023/07/20 00:01:44;;;;;;;;;;;;;;;;;;4944676;28;21627;-86
2023/07/20 00:04:10;;;;;;;;;;;;;;;;;;4926696;28;23753;-86
2023/07/20 00:06:40;;;;;;;;;;;;;;;;;;4946098;28;19933;-86
2023/07/20 00:09:06;;;;;;;;;;;;;;;;;;4940623;28;19924;-86
2023/07/20 00:11:32;;;;;;;;;;;;;;;;;;4952129;28;19925;-86
2023/07/20 00:13:59;;;;;;;;;;;;;;;;;;4943065;28;19933;-86
2023/07/20 00:16:25;;;;;;;;;;;;;;;;;;4947168;28;19969;-86
2023/07/20 00:18:53;;;;;;;;;;;;;;;;;;4963843;28;20029;-87
2023/07/20 00:21:19;;;;;;;;;;;;;;;;;;4924583;28;19921;-86
2023/07/20 00:23:45;;;;;;;;;;;;;;;;;;4952426;28;19926;-86
2023/07/20 00:26:12;;;;;;;;;;;;;;;;;;4953023;28;19929;-85
2023/07/20 00:28:38;;;;;;;;;;;;;;;;;;4954339;28;19921;-86
2023/07/20 00:31:04;;;;;;;;;;;;;;;;;;4984325;28;19921;-86
2023/07/20 00:33:30;;;;;;;;;;;;;;;;;;4991038;28;20299;-86
2023/07/20 00:36:02;;;;;;;;;;;;;;;;;;4988985;28;19929;-86
2023/07/20 00:38:37;;;;;;;;;;;;;;;;;;4994424;28;19981;-86
2023/07/20 00:41:03;;;;;;;;;;;;;;;;;;5005775;28;20051;-86
2023/07/20 00:43:29;;;;;;;;;;;;;;;;;;5004056;28;19952;-86
2023/07/20 00:45:55;;;;;;;;;;;;;;;;;;4996930;28;19986;-86
2023/07/20 00:48:21;;;;;;;;;;;;;;;;;;4983832;28;19917;-86
2023/07/20 00:50:48;;;;;;;;;;;;;;;;;;4970241;28;20386;-86
2023/07/20 00:55:50;;;;;;;;;;;;;;;;;;5030455;22;19925;-84
2023/07/20 00:58:15;;;;;;;;;;;;;;;;;;4989870;28;19979;-84
2023/07/20 01:00:41;;;;;;;;;;;;;;;;;;5001612;28;20001;-84
2023/07/20 01:03:07;;;;;;;;;;;;;;;;;;4999267;28;19928;-84
2023/07/20 01:05:33;;;;;;;;;;;;;;;;;;4987094;28;19925;-84
2023/07/20 01:07:59;;;;;;;;;;;;;;;;;;4980561;28;20508;-85
2023/07/20 01:10:25;;;;;;;;;;;;;;;;;;4985097;28;19925;-84
2023/07/20 01:12:51;;;;;;;;;;;;;;;;;;5005297;28;19921;-84
2023/07/20 01:15:17;;;;;;;;;;;;;;;;;;4998732;28;19949;-84
2023/07/20 01:17:44;;;;;;;;;;;;;;;;;;5006993;28;20364;-84
2023/07/20 01:20:10;;;;;;;;;;;;;;;;;;5005535;28;19932;-84
2023/07/20 01:22:36;;;;;;;;;;;;;;;;;;5010456;28;19952;-84
2023/07/20 01:25:02;;;;;;;;;;;;;;;;;;4998427;28;20037;-84
2023/07/20 01:27:28;;;;;;;;;;;;;;;;;;4998707;28;20010;-84
2023/07/20 01:29:54;;;;;;;;;;;;;;;;;;4992587;28;20015;-84
2023/07/20 01:32:20;;;;;;;;;;;;;;;;;;5007207;28;19917;-84
2023/07/20 01:34:46;;;;;;;;;;;;;;;;;;5008999;28;19921;-84
2023/07/20 01:37:12;;;;;;;;;;;;;;;;;;5004697;28;19942;-84
2023/07/20 01:39:38;;;;;;;;;;;;;;;;;;5007778;28;20318;-84
2023/07/20 01:42:04;;;;;;;;;;;;;;;;;;5006006;28;19917;-84
2023/07/20 01:44:30;;;;;;;;;;;;;;;;;;4995481;28;20358;-83
2023/07/20 01:46:56;;;;;;;;;;;;;;;;;;5008341;28;19948;-84
2023/07/20 01:49:22;;;;;;;;;;;;;;;;;;4987673;28;19925;-84
2023/07/20 01:51:48;;;;;;;;;;;;;;;;;;4996062;28;20334;-85
2023/07/20 01:54:14;;;;;;;;;;;;;;;;;;5002103;28;20023;-84
2023/07/20 01:56:40;;;;;;;;;;;;;;;;;;4991535;28;19921;-84
2023/07/20 01:59:06;;;;;;;;;;;;;;;;;;5003074;28;19925;-84
2023/07/20 02:01:32;;;;;;;;;;;;;;;;;;4990902;28;19921;-84
2023/07/20 02:03:58;;;;;;;;;;;;;;;;;;4997761;28;20026;-84
2023/07/20 02:06:24;;;;;;;;;;;;;;;;;;4987835;28;19925;-85
2023/07/20 02:08:50;;;;;;;;;;;;;;;;;;5001450;28;19964;-84
2023/07/20 02:11:16;;;;;;;;;;;;;;;;;;5001487;28;19928;-85
2023/07/20 02:13:42;;;;;;;;;;;;;;;;;;4999880;28;20360;-84
2023/07/20 02:16:08;;;;;;;;;;;;;;;;;;4997113;28;19953;-84
2023/07/20 02:18:35;;;;;;;;;;;;;;;;;;5000148;28;19932;-85
2023/07/20 02:21:01;;;;;;;;;;;;;;;;;;5020355;28;19932;-85
2023/07/20 02:23:27;;;;;;;;;;;;;;;;;;4985506;28;20292;-84
2023/07/20 02:25:53;;;;;;;;;;;;;;;;;;5006823;28;20330;-84
2023/07/20 02:28:18;;;;;;;;;;;;;;;;;;4991206;28;19979;-84
2023/07/20 02:30:44;;;;;;;;;;;;;;;;;;5007498;28;20063;-84
2023/07/20 02:33:10;;;;;;;;;;;;;;;;;;5005523;28;19963;-84
2023/07/20 02:35:36;;;;;;;;;;;;;;;;;;5004721;28;20297;-84
2023/07/20 02:38:03;;;;;;;;;;;;;;;;;;4989127;28;20043;-85
2023/07/20 02:40:29;;;;;;;;;;;;;;;;;;5008313;28;19971;-85
2023/07/20 02:42:55;;;;;;;;;;;;;;;;;;4996756;28;20064;-84
2023/07/20 02:45:21;;;;;;;;;;;;;;;;;;4991088;28;19921;-84
2023/07/20 02:47:47;;;;;;;;;;;;;;;;;;4989643;28;19920;-84
2023/07/20 02:50:14;;;;;;;;;;;;;;;;;;5002515;28;19917;-85
2023/07/20 02:52:40;;;;;;;;;;;;;;;;;;5007882;28;19931;-85
2023/07/20 02:55:06;;;;;;;;;;;;;;;;;;5000866;28;19924;-85
2023/07/20 02:57:31;;;;;;;;;;;;;;;;;;4993601;28;20443;-85
2023/07/20 02:59:57;;;;;;;;;;;;;;;;;;5022329;28;20300;-85
2023/07/20 03:02:24;;;;;;;;;;;;;;;;;;4998692;28;19921;-85
2023/07/20 03:04:49;;;;;;;;;;;;;;;;;;4993048;28;20247;-85
2023/07/20 03:07:15;;;;;;;;;;;;;;;;;;4989315;28;19983;-85
2023/07/20 03:09:43;;;;;;;;;;;;;;;;;;5000120;28;19924;-85
2023/07/20 03:12:09;;;;;;;;;;;;;;;;;;4979516;28;19932;-85
2023/07/20 03:14:35;;;;;;;;;;;;;;;;;;4982138;28;19971;-85
2023/07/20 03:17:01;;;;;;;;;;;;;;;;;;4999722;28;20299;-85
2023/07/20 03:19:28;;;;;;;;;;;;;;;;;;5001139;28;19955;-84
2023/07/20 03:21:54;;;;;;;;;;;;;;;;;;4999094;28;20548;-85
2023/07/20 03:24:20;;;;;;;;;;;;;;;;;;4977756;28;19929;-85
2023/07/20 03:26:46;;;;;;;;;;;;;;;;;;4995165;28;19925;-84
2023/07/20 03:29:13;;;;;;;;;;;;;;;;;;4981442;28;19988;-85
2023/07/20 03:31:39;;;;;;;;;;;;;;;;;;4987501;28;19925;-84
2023/07/20 03:34:06;;;;;;;;;;;;;;;;;;4986887;28;19931;-84
2023/07/20 03:36:32;;;;;;;;;;;;;;;;;;4989432;28;19921;-85
2023/07/20 03:38:58;;;;;;;;;;;;;;;;;;5002796;28;19943;-85
2023/07/20 03:41:24;;;;;;;;;;;;;;;;;;4987507;28;20275;-85
2023/07/20 03:43:50;;;;;;;;;;;;;;;;;;4989140;28;19920;-84
2023/07/20 03:46:16;;;;;;;;;;;;;;;;;;4989360;28;19925;-85
2023/07/20 03:48:42;;;;;;;;;;;;;;;;;;4998456;28;20397;-85
2023/07/20 03:51:08;;;;;;;;;;;;;;;;;;4993402;28;19940;-85
2023/07/20 03:53:34;;;;;;;;;;;;;;;;;;4998518;28;20010;-85
2023/07/20 03:56:00;;;;;;;;;;;;;;;;;;5014407;28;20300;-85
2023/07/20 03:58:26;;;;;;;;;;;;;;;;;;5011330;28;19925;-85
2023/07/20 04:00:52;;;;;;;;;;;;;;;;;;4995567;28;19927;-85
2023/07/20 04:03:18;;;;;;;;;;;;;;;;;;4969532;28;20660;-85
2023/07/20 04:05:44;;;;;;;;;;;;;;;;;;4983501;28;19917;-85
2023/07/20 04:08:11;;;;;;;;;;;;;;;;;;4987838;28;19950;-85
2023/07/20 04:10:36;;;;;;;;;;;;;;;;;;4996228;28;19956;-85
2023/07/20 04:13:02;;;;;;;;;;;;;;;;;;4991601;28;19967;-85
2023/07/20 04:15:28;;;;;;;;;;;;;;;;;;4972576;28;19921;-85
2023/07/20 04:17:56;;;;;;;;;;;;;;;;;;4976726;28;19920;-85
2023/07/20 04:20:22;;;;;;;;;;;;;;;;;;4991285;28;19917;-85
2023/07/20 04:22:48;;;;;;;;;;;;;;;;;;4999313;28;19928;-85
2023/07/20 04:25:14;;;;;;;;;;;;;;;;;;4990163;28;19929;-84
2023/07/20 04:27:40;;;;;;;;;;;;;;;;;;4972279;28;19920;-84
2023/07/20 04:30:06;;;;;;;;;;;;;;;;;;4997337;28;19931;-84
2023/07/20 04:32:33;;;;;;;;;;;;;;;;;;4972195;28;19925;-85
2023/07/20 04:34:59;;;;;;;;;;;;;;;;;;4982287;28;20072;-85
2023/07/20 04:37:25;;;;;;;;;;;;;;;;;;4984981;28;20605;-85
2023/07/20 04:39:51;;;;;;;;;;;;;;;;;;4974972;28;20384;-85
2023/07/20 04:42:17;;;;;;;;;;;;;;;;;;4968007;28;19944;-85
2023/07/20 04:44:43;;;;;;;;;;;;;;;;;;4971739;28;19971;-85
2023/07/20 04:47:09;;;;;;;;;;;;;;;;;;4973473;28;19959;-85
2023/07/20 04:49:35;;;;;;;;;;;;;;;;;;4974074;28;19964;-85
2023/07/20 04:52:02;;;;;;;;;;;;;;;;;;4953414;28;19925;-85
2023/07/20 04:54:28;;;;;;;;;;;;;;;;;;4959171;28;20351;-85
2023/07/20 04:56:54;;;;;;;;;;;;;;;;;;4961653;28;20004;-85
2023/07/20 04:59:20;;;;;;;;;;;;;;;;;;4953728;28;19979;-85
2023/07/20 05:01:46;;;;;;;;;;;;;;;;;;4946385;28;19941;-85
2023/07/20 05:04:12;;;;;;;;;;;;;;;;;;4954841;28;20023;-85
2023/07/20 05:06:38;;;;;;;;;;;;;;;;;;4960398;28;19928;-85
2023/07/20 05:09:05;;;;;;;;;;;;;;;;;;4941782;28;20434;-85
2023/07/20 05:11:31;;;;;;;;;;;;;;;;;;4960980;28;19956;-85
2023/07/20 05:13:57;;;;;;;;;;;;;;;;;;4963049;28;19940;-85
2023/07/20 05:16:23;;;;;;;;;;;;;;;;;;4947526;28;20378;-85
2023/07/20 05:18:49;;;;;;;;;;;;;;;;;;4949211;28;20369;-85
2023/07/20 05:21:15;;;;;;;;;;;;;;;;;;4941880;28;19928;-85
2023/07/20 05:23:41;;;;;;;;;;;;;;;;;;4964381;28;19948;-85
2023/07/20 05:26:07;;;;;;;;;;;;;;;;;;4957190;28;19928;-84
2023/07/20 05:28:33;;;;;;;;;;;;;;;;;;4964950;28;20012;-85
2023/07/20 05:30:59;;;;;;;;;;;;;;;;;;4973067;28;19925;-84
2023/07/20 05:33:25;;;;;;;;;;;;;;;;;;4962501;28;20269;-84
2023/07/20 05:35:51;;;;;;;;;;;;;;;;;;4963835;28;19932;-85
2023/07/20 05:38:17;;;;;;;;;;;;;;;;;;4967642;28;20459;-84
2023/07/20 05:40:43;;;;;;;;;;;;;;;;;;4967672;28;19948;-84
2023/07/20 05:43:09;;;;;;;;;;;;;;;;;;4968997;28;20372;-85
2023/07/20 05:45:35;;;;;;;;;;;;;;;;;;4975539;28;19932;-85
2023/07/20 05:48:01;;;;;;;;;;;;;;;;;;4986323;28;19921;-84
2023/07/20 05:50:30;;;;;;;;;;;;;;;;;;4993219;28;20273;-85
2023/07/20 05:53:07;;;;;;;;;;;;;;;;;;4958173;28;19956;-85
2023/07/20 06:08:49;;;;;;;;;;;;;;;;;;4835761;29;19943;-84
2023/07/20 06:11:35;;;;;;;;;;;;;;;;;;4848784;29;19945;-84
2023/07/20 06:14:01;;;;;;;;;;;;;;;;;;4842277;29;19932;-84
2023/07/20 06:16:27;;;;;;;;;;;;;;;;;;4822898;29;19928;-84
2023/07/20 06:18:53;;;;;;;;;;;;;;;;;;4834454;29;19924;-84
2023/07/20 06:21:19;;;;;;;;;;;;;;;;;;4839746;29;19928;-84
2023/07/20 06:23:46;;;;;;;;;;;;;;;;;;4827192;29;20010;-84
2023/07/20 06:26:12;;;;;;;;;;;;;;;;;;4839898;29;20026;-84
2023/07/20 06:28:38;;;;;;;;;;;;;;;;;;4833652;29;19970;-84
2023/07/20 06:31:03;;;;;;;;;;;;;;;;;;4824556;29;20015;-84
2023/07/20 06:33:29;;;;;;;;;;;;;;;;;;4826343;29;19931;-84
2023/07/20 06:35:56;;;;;;;;;;;;;;;;;;4817541;29;19920;-84
2023/07/20 06:38:23;;;;;;;;;;;;;;;;;;4835525;29;19929;-84
2023/07/20 06:40:49;;;;;;;;;;;;;;;;;;4828882;29;19935;-84
2023/07/20 06:43:15;;;;;;;;;;;;;;;;;;4838730;29;19924;-84
2023/07/20 06:45:41;;;;;;;;;;;;;;;;;;4820329;29;19920;-83
2023/07/20 06:48:07;;;;;;;;;;;;;;;;;;4816197;29;19928;-84
2023/07/20 06:50:33;;;;;;;;;;;;;;;;;;4822660;29;19924;-84
2023/07/20 06:52:59;;;;;;;;;;;;;;;;;;4815976;29;19924;-84
2023/07/20 06:55:25;;;;;;;;;;;;;;;;;;4806435;29;19932;-84
2023/07/20 06:57:51;;;;;;;;;;;;;;;;;;4831433;29;19926;-84
2023/07/20 07:00:17;;;;;;;;;;;;;;;;;;4824586;29;19928;-83
2023/07/20 07:02:43;;;;;;;;;;;;;;;;;;4830718;29;19931;-84
2023/07/20 07:05:09;;;;;;;;;;;;;;;;;;4820357;29;19924;-84
2023/07/20 07:07:35;;;;;;;;;;;;;;;;;;4837337;29;20014;-84
2023/07/20 07:10:03;;;;;;;;;;;;;;;;;;4808859;29;19928;-84
2023/07/20 07:12:29;;;;;;;;;;;;;;;;;;4833709;29;19932;-84
2023/07/20 07:14:55;;;;;;;;;;;;;;;;;;4831221;29;20326;-84
2023/07/20 07:17:21;;;;;;;;;;;;;;;;;;4815399;29;20010;-84
2023/07/20 07:19:47;;;;;;;;;;;;;;;;;;4835056;29;19927;-84
2023/07/20 07:22:13;;;;;;;;;;;;;;;;;;4834496;29;19923;-85
2023/07/20 07:24:41;;;;;;;;;;;;;;;;;;4839594;29;19920;-84
2023/07/20 07:27:07;;;;;;;;;;;;;;;;;;4808422;29;19932;-84
2023/07/20 07:29:33;;;;;;;;;;;;;;;;;;4852193;29;20459;-84
2023/07/20 07:31:59;;;;;;;;;;;;;;;;;;4834975;29;20390;-84
2023/07/20 07:34:26;;;;;;;;;;;;;;;;;;4846669;29;19920;-85
2023/07/20 07:36:52;;;;;;;;;;;;;;;;;;4835138;29;20010;-83
2023/07/20 07:39:18;;;;;;;;;;;;;;;;;;4839043;29;20451;-84
2023/07/20 07:41:44;;;;;;;;;;;;;;;;;;4837828;29;19972;-84
2023/07/20 07:44:10;;;;;;;;;;;;;;;;;;4839756;29;19928;-84
2023/07/20 07:46:36;;;;;;;;;;;;;;;;;;4829376;29;19971;-84
2023/07/20 07:49:02;;;;;;;;;;;;;;;;;;4838115;29;20341;-84
2023/07/20 07:51:28;;;;;;;;;;;;;;;;;;4820407;29;19920;-84
2023/07/20 07:53:53;;;;;;;;;;;;;;;;;;4803994;29;19932;-84
2023/07/20 07:56:22;;;;;;;;;;;;;;;;;;4829301;29;19928;-84
2023/07/20 07:58:48;;;;;;;;;;;;;;;;;;4823771;29;19928;-85
2023/07/20 08:01:14;;;;;;;;;;;;;;;;;;4834387;29;19924;-84
2023/07/20 08:03:40;;;;;;;;;;;;;;;;;;4825975;29;19932;-84
2023/07/20 08:06:06;;;;;;;;;;;;;;;;;;4823458;29;19963;-84
2023/07/20 08:08:32;;;;;;;;;;;;;;;;;;4828188;29;19927;-84
2023/07/20 08:10:59;;;;;;;;;;;;;;;;;;4827796;29;20423;-85
2023/07/20 08:13:25;;;;;;;;;;;;;;;;;;4845147;29;19967;-85
2023/07/20 08:15:51;;;;;;;;;;;;;;;;;;4812341;29;19974;-84
2023/07/20 08:18:17;;;;;;;;;;;;;;;;;;4823841;29;20333;-84
2023/07/20 08:20:43;;;;;;;;;;;;;;;;;;4828115;29;19920;-84
2023/07/20 08:23:09;;;;;;;;;;;;;;;;;;4817631;29;20034;-84
2023/07/20 08:25:35;;;;;;;;;;;;;;;;;;4845237;29;19928;-84
2023/07/20 08:28:02;;;;;;;;;;;;;;;;;;4823329;29;19993;-85
2023/07/20 08:30:28;;;;;;;;;;;;;;;;;;4826906;29;19924;-84
2023/07/20 08:32:54;;;;;;;;;;;;;;;;;;4846563;29;19968;-84
2023/07/20 08:35:20;;;;;;;;;;;;;;;;;;4827271;29;19975;-84
2023/07/20 08:37:46;;;;;;;;;;;;;;;;;;4845505;29;19958;-84
2023/07/20 08:40:13;;;;;;;;;;;;;;;;;;4825420;29;19967;-84
2023/07/20 08:42:39;;;;;;;;;;;;;;;;;;4830967;29;19953;-84
2023/07/20 08:45:05;;;;;;;;;;;;;;;;;;4822987;29;20372;-84
2023/07/20 08:47:31;;;;;;;;;;;;;;;;;;4838654;29;20399;-84
2023/07/20 08:49:57;;;;;;;;;;;;;;;;;;4831975;29;20015;-84
2023/07/20 08:52:23;;;;;;;;;;;;;;;;;;4824972;29;20010;-84
2023/07/20 08:54:49;;;;;;;;;;;;;;;;;;4830421;29;19927;-84
2023/07/20 08:57:15;;;;;;;;;;;;;;;;;;4828276;29;19968;-84
2023/07/20 08:59:41;;;;;;;;;;;;;;;;;;4828596;29;19940;-85
2023/07/20 09:02:07;;;;;;;;;;;;;;;;;;4818870;29;19927;-84
2023/07/20 09:04:33;;;;;;;;;;;;;;;;;;4836256;29;19924;-84
2023/07/20 09:06:59;;;;;;;;;;;;;;;;;;4829032;29;19923;-85
2023/07/20 09:09:25;;;;;;;;;;;;;;;;;;4831836;29;19964;-85
2023/07/20 09:11:51;;;;;;;;;;;;;;;;;;4831265;29;19928;-85
2023/07/20 09:14:17;;;;;;;;;;;;;;;;;;4835641;29;19924;-84
2023/07/20 09:16:42;;;;;;;;;;;;;;;;;;4838029;29;20372;-84
2023/07/20 09:19:08;;;;;;;;;;;;;;;;;;4826655;29;19997;-84
2023/07/20 09:21:34;;;;;;;;;;;;;;;;;;4838152;29;19930;-84
2023/07/20 09:24:01;;;;;;;;;;;;;;;;;;4830147;29;19928;-85
2023/07/20 09:26:27;;;;;;;;;;;;;;;;;;4837007;29;19930;-84
2023/07/20 09:28:54;;;;;;;;;;;;;;;;;;4833338;29;19920;-84
2023/07/20 09:31:20;;;;;;;;;;;;;;;;;;4834924;29;19932;-84
2023/07/20 09:33:46;;;;;;;;;;;;;;;;;;4839283;29;20359;-85
2023/07/20 09:36:12;;;;;;;;;;;;;;;;;;4831041;29;19923;-84
2023/07/20 09:38:37;;;;;;;;;;;;;;;;;;4835823;29;19926;-84
2023/07/20 09:41:03;;;;;;;;;;;;;;;;;;4837058;29;20363;-85
2023/07/20 09:43:30;;;;;;;;;;;;;;;;;;4853786;29;19928;-84
2023/07/20 09:45:56;;;;;;;;;;;;;;;;;;4826322;29;19932;-84
2023/07/20 09:48:22;;;;;;;;;;;;;;;;;;4849965;29;19932;-84
2023/07/20 09:50:48;;;;;;;;;;;;;;;;;;4831690;29;19988;-84
2023/07/20 09:53:14;;;;;;;;;;;;;;;;;;4832263;29;19920;-84
2023/07/20 09:55:40;;;;;;;;;;;;;;;;;;4833229;29;19924;-84
2023/07/20 09:58:07;;;;;;;;;;;;;;;;;;4834997;29;19924;-84
2023/07/20 10:00:32;;;;;;;;;;;;;;;;;;4840945;29;19931;-84
2023/07/20 10:02:59;;;;;;;;;;;;;;;;;;4836091;29;19975;-85
2023/07/20 10:05:25;;;;;;;;;;;;;;;;;;4834779;29;20012;-84
2023/07/20 10:07:51;;;;;;;;;;;;;;;;;;4843248;29;20018;-84
2023/07/20 10:10:17;;;;;;;;;;;;;;;;;;4826608;29;20325;-84
2023/07/20 10:12:43;;;;;;;;;;;;;;;;;;4835849;29;19978;-84
2023/07/20 10:15:08;;;;;;;;;;;;;;;;;;4809185;29;19984;-85
2023/07/20 10:17:34;;;;;;;;;;;;;;;;;;4836992;29;19924;-85
2023/07/20 10:20:01;;;;;;;;;;;;;;;;;;4836394;29;19924;-84
2023/07/20 10:22:27;;;;;;;;;;;;;;;;;;4852464;29;19949;-84
2023/07/20 10:24:54;;;;;;;;;;;;;;;;;;4828754;29;20365;-84
2023/07/20 10:27:19;;;;;;;;;;;;;;;;;;4840640;29;19928;-84
2023/07/20 10:29:45;;;;;;;;;;;;;;;;;;4818052;29;19926;-84
2023/07/20 10:32:11;;;;;;;;;;;;;;;;;;4827151;29;19928;-85
2023/07/20 10:34:37;;;;;;;;;;;;;;;;;;4822815;29;19920;-85
2023/07/20 10:37:03;;;;;;;;;;;;;;;;;;4815589;29;19935;-85
2023/07/20 10:39:58;;;;;;;;;;;;;;;;;;;;;
2023/07/20 10:56:33;;;;;;;;;;;;;;;;;;;;;
2023/07/20 11:17:32;;;;;;;;;;;;;;;;;;4745928;29;19921;-85
2023/07/20 11:31:53;;;;;;;;;;;;;;;;;;4838866;29;20292;-84
2023/07/20 11:34:19;;;;;;;;;;;;;;;;;;4819736;29;22113;-84
2023/07/20 11:36:45;;;;;;;;;;;;;;;;;;4841814;29;20468;-84
2023/07/20 11:39:13;;;;;;;;;;;;;;;;;;4820542;29;19980;-85
2023/07/20 11:41:42;;;;;;;;;;;;;;;;;;4830512;29;19920;-87
2023/07/20 11:44:12;;;;;;;;;;;;;;;;;;4826680;29;20336;-86
2023/07/20 11:46:50;;;;;;;;;;;;;;;;;;4829010;29;19920;-86
2023/07/20 11:49:25;;;;;;;;;;;;;;;;;;4828054;29;19952;-86
2023/07/20 11:51:54;;;;;;;;;;;;;;;;;;4828372;29;19935;-86
2023/07/20 11:54:20;;;;;;;;;;;;;;;;;;4825207;29;20299;-86
2023/07/20 11:56:46;;;;;;;;;;;;;;;;;;4828084;29;19924;-86
2023/07/20 11:59:12;;;;;;;;;;;;;;;;;;4827713;29;20055;-86
2023/07/20 12:01:41;;;;;;;;;;;;;;;;;;4829183;29;19959;-85
2023/07/20 12:04:07;;;;;;;;;;;;;;;;;;4821726;29;20034;-86
2023/07/20 12:06:36;;;;;;;;;;;;;;;;;;4828488;29;19924;-86
2023/07/20 12:09:05;;;;;;;;;;;;;;;;;;4823374;29;19951;-86
2023/07/20 12:11:32;;;;;;;;;;;;;;;;;;4828152;29;19930;-86
2023/07/20 12:14:01;;;;;;;;;;;;;;;;;;4854424;29;19929;-86
2023/07/20 12:16:27;;;;;;;;;;;;;;;;;;4806646;29;19928;-86
2023/07/20 12:18:55;;;;;;;;;;;;;;;;;;4849187;29;19923;-85
2023/07/20 12:21:22;;;;;;;;;;;;;;;;;;4832221;29;19931;-86
2023/07/20 12:23:48;;;;;;;;;;;;;;;;;;4849771;29;20371;-86
2023/07/20 12:26:15;;;;;;;;;;;;;;;;;;4833681;29;19928;-85
2023/07/20 12:28:41;;;;;;;;;;;;;;;;;;4849283;29;19932;-85
2023/07/20 12:31:09;;;;;;;;;;;;;;;;;;4831326;29;20011;-86
2023/07/20 12:33:35;;;;;;;;;;;;;;;;;;4846433;29;19927;-86
2023/07/20 12:36:01;;;;;;;;;;;;;;;;;;4817009;29;20000;-86
2023/07/20 12:38:28;;;;;;;;;;;;;;;;;;4855922;29;20010;-86
2023/07/20 12:40:55;;;;;;;;;;;;;;;;;;4837069;29;19971;-85
2023/07/20 12:43:23;;;;;;;;;;;;;;;;;;4841864;29;20401;-86
2023/07/20 12:45:49;;;;;;;;;;;;;;;;;;4825992;29;19924;-86
2023/07/20 12:48:15;;;;;;;;;;;;;;;;;;4818091;29;20291;-86
2023/07/20 12:50:42;;;;;;;;;;;;;;;;;;4830918;29;20257;-86
2023/07/20 12:53:08;;;;;;;;;;;;;;;;;;4825688;29;19924;-86
2023/07/20 12:55:33;;;;;;;;;;;;;;;;;;4826265;29;19924;-86
2023/07/20 12:58:00;;;;;;;;;;;;;;;;;;4838612;29;19948;-86
2023/07/20 13:00:26;;;;;;;;;;;;;;;;;;4827042;29;20288;-86
2023/07/20 13:02:52;;;;;;;;;;;;;;;;;;4826891;29;19952;-85
2023/07/20 13:05:18;;;;;;;;;;;;;;;;;;4821378;29;19923;-86
2023/07/20 13:07:46;;;;;;;;;;;;;;;;;;4823187;29;19924;-86
2023/07/20 13:10:12;;;;;;;;;;;;;;;;;;4823286;29;20008;-85
2023/07/20 13:12:39;;;;;;;;;;;;;;;;;;4826640;29;19959;-85
2023/07/20 13:15:07;;;;;;;;;;;;;;;;;;4841151;29;20459;-86
2023/07/20 13:17:33;;;;;;;;;;;;;;;;;;4830171;29;19924;-86
2023/07/20 13:20:06;;;;;;;;;;;;;;;;;;4822379;29;19928;-86
2023/07/20 13:22:34;;;;;;;;;;;;;;;;;;4825987;29;19920;-85
2023/07/20 13:25:11;;;;;;;;;;;;;;;;;;;;;
2023/07/20 13:31:22;;;;;;;;;;;;;;;;;;;;;
2023/07/20 13:36:43;;;;;;;;;;;;;;;;;;4819102;29;19931;-86
2023/07/20 13:39:45;;;;;;;;;;;;;;;;;;4819061;29;19967;-87
2023/07/20 13:42:13;;;;;;;;;;;;;;;;;;4801173;29;19925;-87
2023/07/20 13:44:46;;;;;;;;;;;;;;;;;;4821675;29;19989;-87
2023/07/20 13:47:33;;;;;;;;;;;;;;;;;;4819796;29;19948;-85
2023/07/20 13:49:59;;;;;;;;;;;;;;;;;;4804848;29;20364;-84
2023/07/20 13:52:27;;;;;;;;;;;;;;;;;;4823838;29;19967;-85
2023/07/20 13:54:56;;;;;;;;;;;;;;;;;;4816545;29;19936;-84
2023/07/20 13:57:22;;;;;;;;;;;;;;;;;;4838050;29;19929;-85
2023/07/20 13:59:48;;;;;;;;;;;;;;;;;;4826140;29;19932;-86
2023/07/20 14:02:17;;;;;;;;;;;;;;;;;;4817217;29;20428;-86
2023/07/20 14:05:03;;;;;;;;;;;;;;;;;;;;;
2023/07/20 14:20:11;;;;;;;;;;;;;;;;;;4763027;29;20254;-88
2023/07/20 14:22:52;;;;;;;;;;;;;;;;;;4762973;29;19971;-87
2023/07/20 14:28:22;;;;;;;;;;;;;;;;;;4752317;29;19929;-86
2023/07/20 14:30:51;;;;;;;;;;;;;;;;;;4796665;29;19932;-86
2023/07/20 14:33:17;;;;;;;;;;;;;;;;;;4831536;29;20546;-86
2023/07/20 14:35:43;;;;;;;;;;;;;;;;;;4824456;29;20360;-86
2023/07/20 14:38:09;;;;;;;;;;;;;;;;;;4823025;29;20351;-85
2023/07/20 14:40:35;;;;;;;;;;;;;;;;;;4825413;29;21701;-85
2023/07/20 14:45:48;;;;;;;;;;;;;;;;;;4821329;29;19940;-86
2023/07/20 14:48:18;;;;;;;;;;;;;;;;;;4827819;29;20049;-85
2023/07/20 14:50:50;;;;;;;;;;;;;;;;;;4826435;29;19923;-87
2023/07/20 14:53:16;;;;;;;;;;;;;;;;;;4823910;29;20411;-86
2023/07/20 14:55:45;;;;;;;;;;;;;;;;;;4835775;29;19928;-86
2023/07/20 14:58:13;;;;;;;;;;;;;;;;;;4825525;29;19927;-87
2023/07/20 15:00:42;;;;;;;;;;;;;;;;;;4824112;29;19951;-87
2023/07/20 15:03:14;;;;;;;;;;;;;;;;;;4825710;29;19984;-89
2023/07/20 15:11:49;;;;;;;;;;;;;;;;;;4823829;29;19920;-87
2023/07/20 15:14:55;;;;;;;;;;;;;;;;;;4822087;29;19943;-88
2023/07/20 15:17:50;;;;;;;;;;;;;;;;;;;;;
2023/07/20 15:27:10;;;;;;;;;;;;;;;;;;;;;
2023/07/20 15:29:45;;;;;;;;;;;;;;;;;;4729891;30;20039;-88
2023/07/20 15:33:20;;;;;;;;;;;;;;;;;;4709620;29;19991;-89
2023/07/20 15:38:51;;;;;;;;;;;;;;;;;;4745513;29;20670;-88
2023/07/20 15:41:22;;;;;;;;;;;;;;;;;;4731995;29;20034;-87
2023/07/20 15:47:06;;;;;;;;;;;;;;;;;;;;;
2023/07/20 15:49:42;;;;;;;;;;;;;;;;;;4763734;29;19952;-88
2023/07/20 15:56:00;;;;;;;;;;;;;;;;;;4740616;29;19930;-89
2023/07/20 15:58:02;;;;;;;;;;;;;;;;;;4723759;29;19929;-88
2023/07/20 16:00:31;;;;;;;;;;;;;;;;;;4752595;29;19933;-88
2023/07/20 16:03:14;;;;;;;;;;;;;;;;;;4734915;30;19930;-89
2023/07/20 16:05:48;;;;;;;;;;;;;;;;;;4748846;29;19961;-88
2023/07/20 16:08:20;;;;;;;;;;;;;;;;;;4769713;29;19984;-88
2023/07/20 16:11:04;;;;;;;;;;;;;;;;;;4749915;29;19936;-88
2023/07/20 16:16:57;;;;;;;;;;;;;;;;;;4727938;29;19956;-88
2023/07/20 16:26:14;;;;;;;;;;;;;;;;;;4704040;30;19940;-87
2023/07/20 18:20:40;;;;;;;;;;;;;;;;;;6193956;23;19965;-87
2023/07/20 18:23:28;;;;;;;;;;;;;;;;;;;;;
2023/07/20 18:26:05;;;;;;;;;;;;;;;;;;6198541;23;20341;-88
2023/07/20 18:28:31;;;;;;;;;;;;;;;;;;6174560;23;20369;-88
2023/07/20 18:44:18;;;;;;;;;;;;;;;;;;;;;
2023/07/20 18:47:31;;;;;;;;;;;;;;;;;;;;;
2023/07/20 18:50:34;;;;;;;;;;;;;;;;;;5962327;24;20424;-86
2023/07/20 19:05:49;;;;;;;;;;;;;;;;;;6002092;23;20326;-86
2023/07/20 19:21:05;;;;;;;;;;;;;;;;;;;;;
2023/07/20 19:23:47;;;;;;;;;;;;;;;;;;;;;
2023/07/20 19:34:59;;;;;;;;;;;;;;;;;;5990942;23;20275;-86
2023/07/20 19:41:04;;;;;;;;;;;;;;;;;;5865485;24;19962;-86
2023/07/20 19:50:10;;;;;;;;;;;;;;;;;;5980090;23;20307;-86
2023/07/20 19:53:14;;;;;;;;;;;;;;;;;;5911784;24;19923;-86
2023/07/20 19:55:52;;;;;;;;;;;;;;;;;;5891777;24;20609;-86
2023/07/20 19:58:54;;;;;;;;;;;;;;;;;;5872460;24;20510;-86
2023/07/20 20:01:44;;;;;;;;;;;;;;;;;;;;;
2023/07/20 20:04:45;;;;;;;;;;;;;;;;;;5918214;24;19935;-86
2023/07/20 20:07:46;;;;;;;;;;;;;;;;;;;;;
2023/07/20 20:10:21;;;;;;;;;;;;;;;;;;5906414;24;19965;-84
2023/07/20 20:12:50;;;;;;;;;;;;;;;;;;5897740;24;19922;-86
2023/07/20 20:15:17;;;;;;;;;;;;;;;;;;5941282;24;20344;-86
2023/07/20 20:17:48;;;;;;;;;;;;;;;;;;5985159;23;19921;-86
2023/07/20 20:20:14;;;;;;;;;;;;;;;;;;6044873;23;20000;-85
2023/07/20 20:22:40;;;;;;;;;;;;;;;;;;6025753;23;19955;-86
2023/07/20 20:25:09;;;;;;;;;;;;;;;;;;6021928;23;19945;-86
2023/07/20 20:27:44;;;;;;;;;;;;;;;;;;6026695;23;19988;-86
2023/07/20 20:30:11;;;;;;;;;;;;;;;;;;6021967;23;19925;-86
2023/07/20 20:32:44;;;;;;;;;;;;;;;;;;6024841;23;20007;-86
2023/07/20 20:35:18;;;;;;;;;;;;;;;;;;6023763;23;19957;-85
2023/07/20 20:37:47;;;;;;;;;;;;;;;;;;6025684;23;19923;-86
2023/07/20 20:40:20;;;;;;;;;;;;;;;;;;6024573;23;20439;-86
2023/07/20 20:42:49;;;;;;;;;;;;;;;;;;6114434;23;19983;-86
2023/07/20 20:45:18;;;;;;;;;;;;;;;;;;6112459;23;19921;-86
2023/07/20 20:47:44;;;;;;;;;;;;;;;;;;6114996;23;20278;-85
2023/07/20 20:50:10;;;;;;;;;;;;;;;;;;6111953;23;20619;-85
2023/07/20 20:52:49;;;;;;;;;;;;;;;;;;;;;
2023/07/20 20:55:34;;;;;;;;;;;;;;;;;;6135728;23;19920;-85
2023/07/20 20:58:21;;;;;;;;;;;;;;;;;;6149798;23;19967;-86
2023/07/20 21:00:55;;;;;;;;;;;;;;;;;;6115476;23;19924;-85
2023/07/20 21:03:52;;;;;;;;;;;;;;;;;;6141259;23;19998;-85
2023/07/20 21:06:36;;;;;;;;;;;;;;;;;;6119080;23;20382;-85
2023/07/20 21:09:10;;;;;;;;;;;;;;;;;;6163639;23;19923;-85
2023/07/20 21:11:48;;;;;;;;;;;;;;;;;;6140407;23;20100;-85
2023/07/20 21:14:14;;;;;;;;;;;;;;;;;;6117502;23;19995;-85
2023/07/20 21:16:45;;;;;;;;;;;;;;;;;;6119970;23;19930;-85
2023/07/20 21:19:14;;;;;;;;;;;;;;;;;;6116713;23;19920;-85
2023/07/20 21:21:45;;;;;;;;;;;;;;;;;;6119112;23;19929;-85
2023/07/20 21:24:37;;;;;;;;;;;;;;;;;;;;;
2023/07/20 21:27:08;;;;;;;;;;;;;;;;;;6142765;23;19916;-85
2023/07/20 21:29:44;;;;;;;;;;;;;;;;;;;;;
2023/07/20 21:32:16;;;;;;;;;;;;;;;;;;6177634;23;19967;-85
2023/07/20 21:34:44;;;;;;;;;;;;;;;;;;6154127;23;19944;-85
2023/07/20 21:37:22;;;;;;;;;;;;;;;;;;6154499;23;19974;-85
2023/07/20 21:39:54;;;;;;;;;;;;;;;;;;6154709;23;19947;-84
2023/07/20 21:42:30;;;;;;;;;;;;;;;;;;;;;
2023/07/20 21:45:04;;;;;;;;;;;;;;;;;;6172095;23;20014;-85
2023/07/20 21:47:48;;;;;;;;;;;;;;;;;;6146305;23;19920;-85
2023/07/20 21:50:29;;;;;;;;;;;;;;;;;;6145056;23;19920;-85
2023/07/20 21:53:04;;;;;;;;;;;;;;;;;;6146422;23;19920;-85
2023/07/20 21:55:33;;;;;;;;;;;;;;;;;;6148091;23;19995;-85
2023/07/20 21:58:32;;;;;;;;;;;;;;;;;;6148337;23;20245;-85